Time;durP1;ratioP1;P1;durP2;ratioP2;P2;SDS_P1;SDS_P2;PMS_P1;PMS_P2;Temp;Humidity;BMP_temperature;BMP_pressure;BME280_temperature;BME280_humidity;BME280_pressure;Samples;Min_cycle;Max_cycle;Signal;HPM_P1;HPM_P2
2024/01/08 00:00:07;;;;;;;13.55;12.35;;;-0.60;99.90;;;;;;5055061;28;20036;-82
2024/01/08 00:02:32;;;;;;;14.35;13.25;;;-0.60;99.90;;;;;;5070407;28;20040;-83
2024/01/08 00:04:58;;;;;;;14.45;13.35;;;-0.60;99.90;;;;;;5067478;28;20036;-83
2024/01/08 00:07:25;;;;;;;15.07;13.80;;;-0.50;99.90;;;;;;5069441;28;20040;-82
2024/01/08 00:09:51;;;;;;;13.55;12.55;;;-0.50;99.90;;;;;;5072308;28;20432;-82
2024/01/08 00:12:16;;;;;;;15.57;14.18;;;-0.50;99.90;;;;;;5047102;28;20033;-82
2024/01/08 00:14:42;;;;;;;14.27;12.88;;;-0.60;99.90;;;;;;5070659;28;20408;-83
2024/01/08 00:17:08;;;;;;;14.63;13.38;;;-0.60;99.90;;;;;;5059014;28;20044;-83
2024/01/08 00:19:33;;;;;;;14.40;13.40;;;-0.60;99.90;;;;;;5073502;28;20070;-82
2024/01/08 00:21:59;;;;;;;14.02;12.98;;;-0.60;99.90;;;;;;5069519;28;20467;-82
2024/01/08 00:24:25;;;;;;;15.13;13.93;;;-0.50;99.90;;;;;;5052185;28;20045;-82
2024/01/08 00:26:50;;;;;;;14.98;13.77;;;-0.50;99.90;;;;;;5053903;28;20127;-81
2024/01/08 00:29:16;;;;;;;13.27;12.27;;;-0.50;99.90;;;;;;5054239;28;20507;-82
2024/01/08 00:31:42;;;;;;;15.80;14.35;;;-0.50;99.90;;;;;;5073302;28;20530;-83
2024/01/08 00:34:08;;;;;;;14.25;13.18;;;-0.50;99.90;;;;;;5034932;28;20149;-81
2024/01/08 00:36:37;;;;;;;15.88;14.43;;;-0.50;99.90;;;;;;5047360;28;20043;-82
2024/01/08 00:39:02;;;;;;;14.77;13.40;;;-0.60;99.90;;;;;;5041471;28;20047;-82
2024/01/08 00:41:28;;;;;;;15.07;13.55;;;-0.70;99.90;;;;;;5054334;28;20041;-82
2024/01/08 00:43:54;;;;;;;15.10;13.88;;;-0.70;99.90;;;;;;5055518;28;20086;-82
2024/01/08 00:46:19;;;;;;;14.27;12.98;;;-0.80;99.90;;;;;;5045717;28;20040;-83
2024/01/08 00:48:45;;;;;;;14.10;12.88;;;-0.90;99.90;;;;;;5057644;28;20032;-82
2024/01/08 00:51:11;;;;;;;15.10;13.70;;;-0.90;99.90;;;;;;5068841;28;20033;-83
2024/01/08 00:53:37;;;;;;;15.57;14.45;;;-1.00;99.90;;;;;;5052402;28;20032;-82
2024/01/08 00:56:02;;;;;;;14.07;13.07;;;-1.20;99.90;;;;;;5044341;28;20036;-82
2024/01/08 00:58:30;;;;;;;13.27;12.25;;;-1.20;99.90;;;;;;5050933;28;20046;-82
2024/01/08 01:00:55;;;;;;;14.25;12.88;;;-1.30;99.90;;;;;;5037759;28;20067;-82
2024/01/08 01:03:22;;;;;;;15.48;14.15;;;-1.30;99.90;;;;;;5068031;28;20072;-83
2024/01/08 01:05:48;;;;;;;14.68;13.25;;;-1.30;99.90;;;;;;5060758;28;20793;-83
2024/01/08 01:08:13;;;;;;;15.05;13.55;;;-1.40;99.90;;;;;;5069811;28;20040;-83
2024/01/08 01:10:39;;;;;;;15.55;14.18;;;-1.40;99.90;;;;;;5064851;28;20041;-83
2024/01/08 01:13:05;;;;;;;16.13;14.60;;;-1.40;99.90;;;;;;5064196;28;20155;-83
2024/01/08 01:15:30;;;;;;;15.38;14.00;;;-1.50;99.90;;;;;;5072116;28;20064;-83
2024/01/08 01:17:56;;;;;;;16.00;14.57;;;-1.50;99.90;;;;;;5035273;28;20440;-83
2024/01/08 01:20:22;;;;;;;15.10;13.63;;;-1.60;99.90;;;;;;5053440;28;20052;-83
2024/01/08 01:22:48;;;;;;;15.93;14.40;;;-1.60;99.90;;;;;;5057899;28;20087;-82
2024/01/08 01:25:14;;;;;;;15.30;13.82;;;-1.60;99.90;;;;;;5108960;27;20040;-83
2024/01/08 01:27:39;;;;;;;13.57;12.55;;;-1.60;99.90;;;;;;5080119;28;20692;-82
2024/01/08 01:30:06;;;;;;;16.00;14.65;;;-1.60;99.90;;;;;;5070647;28;20039;-82
2024/01/08 01:32:32;;;;;;;16.48;15.10;;;-1.60;99.90;;;;;;5071063;28;20085;-83
2024/01/08 01:34:58;;;;;;;16.17;14.60;;;-1.60;99.90;;;;;;5070443;28;20557;-83
2024/01/08 01:37:23;;;;;;;15.80;14.50;;;-1.60;99.90;;;;;;5076064;28;20044;-82
2024/01/08 01:39:49;;;;;;;14.98;13.57;;;-1.60;99.90;;;;;;5069700;28;20416;-82
2024/01/08 01:42:16;;;;;;;17.42;15.90;;;-1.60;99.90;;;;;;5058131;28;20130;-83
2024/01/08 01:44:42;;;;;;;14.02;12.93;;;-1.60;99.90;;;;;;5054360;28;20040;-82
2024/01/08 01:47:08;;;;;;;14.57;13.40;;;-1.50;99.90;;;;;;5089171;28;20096;-83
2024/01/08 01:49:34;;;;;;;14.77;13.57;;;-1.50;99.90;;;;;;5075265;28;20510;-82
2024/01/08 01:52:01;;;;;;;15.85;14.35;;;-1.50;99.90;;;;;;5054571;28;20115;-83
2024/01/08 01:54:28;;;;;;;14.27;13.27;;;-1.40;99.90;;;;;;5052261;28;20047;-83
2024/01/08 01:56:58;;;;;;;15.48;14.10;;;-1.40;99.90;;;;;;5078978;28;20039;-83
2024/01/08 01:59:25;;;;;;;15.18;13.77;;;-1.40;99.90;;;;;;5092362;28;20046;-82
2024/01/08 02:01:52;;;;;;;15.48;14.18;;;-1.40;99.90;;;;;;5053074;28;20040;-83
2024/01/08 02:04:18;;;;;;;12.95;11.95;;;-1.40;99.90;;;;;;5063243;28;20082;-83
2024/01/08 02:06:45;;;;;;;15.98;14.48;;;-1.30;99.90;;;;;;5073164;28;20093;-83
2024/01/08 02:09:13;;;;;;;16.35;14.95;;;-1.30;99.90;;;;;;5062788;28;20151;-82
2024/01/08 02:11:39;;;;;;;15.20;13.73;;;-1.20;99.90;;;;;;5068910;28;20044;-83
2024/01/08 02:14:05;;;;;;;14.73;13.60;;;-1.20;99.90;;;;;;5061258;28;20044;-83
2024/01/08 02:16:31;;;;;;;16.70;15.00;;;-1.20;99.90;;;;;;5076169;28;20035;-83
2024/01/08 02:18:57;;;;;;;16.92;15.38;;;-1.20;99.90;;;;;;5074152;28;20115;-83
2024/01/08 02:21:22;;;;;;;16.80;15.35;;;-1.10;99.90;;;;;;5055530;28;20040;-83
2024/01/08 02:23:48;;;;;;;16.10;14.70;;;-1.10;99.90;;;;;;5065999;28;20135;-82
2024/01/08 02:26:15;;;;;;;17.13;15.18;;;-1.10;99.90;;;;;;5060148;28;20052;-83
2024/01/08 02:28:41;;;;;;;14.68;13.48;;;-1.00;99.90;;;;;;5076482;28;20096;-83
2024/01/08 02:31:07;;;;;;;17.38;15.70;;;-1.10;99.90;;;;;;5054152;28;20036;-83
2024/01/08 02:33:32;;;;;;;17.05;15.48;;;-1.00;99.90;;;;;;5069638;28;20123;-83
2024/01/08 02:35:58;;;;;;;16.75;15.25;;;-1.00;99.90;;;;;;5071300;28;20821;-83
2024/01/08 02:38:24;;;;;;;15.35;14.05;;;-1.00;99.90;;;;;;5055325;28;20094;-83
2024/01/08 02:40:49;;;;;;;14.07;12.95;;;-1.00;99.90;;;;;;5057918;28;20042;-82
2024/01/08 02:43:15;;;;;;;17.63;15.85;;;-1.00;99.90;;;;;;5073525;28;20036;-83
2024/01/08 02:45:41;;;;;;;17.02;15.35;;;-1.00;99.90;;;;;;5087678;28;20774;-83
2024/01/08 02:48:07;;;;;;;15.15;13.75;;;-1.00;99.90;;;;;;5057068;28;20066;-83
2024/01/08 02:50:33;;;;;;;19.50;17.67;;;-0.90;99.90;;;;;;5075496;28;20036;-83
2024/01/08 02:52:58;;;;;;;16.60;14.93;;;-0.80;99.90;;;;;;5078157;28;20059;-83
2024/01/08 02:55:24;;;;;;;16.88;15.27;;;-0.90;99.90;;;;;;5058299;28;20043;-83
2024/01/08 02:57:50;;;;;;;15.10;13.80;;;-0.80;99.90;;;;;;5071899;28;20118;-83
2024/01/08 03:00:16;;;;;;;15.55;14.25;;;-0.80;99.90;;;;;;5097793;28;20514;-83
2024/01/08 03:02:42;;;;;;;16.35;14.85;;;-0.80;99.90;;;;;;5051615;28;20040;-83
2024/01/08 03:05:08;;;;;;;16.08;14.73;;;-0.80;99.90;;;;;;5070411;28;20036;-83
2024/01/08 03:07:33;;;;;;;19.50;17.65;;;-0.80;99.90;;;;;;5049312;28;20044;-83
2024/01/08 03:09:59;;;;;;;16.00;14.45;;;-0.70;99.90;;;;;;5062802;28;20036;-83
2024/01/08 03:12:25;;;;;;;16.52;14.93;;;-0.70;99.90;;;;;;5089816;28;20038;-83
2024/01/08 03:14:52;;;;;;;16.92;15.32;;;-0.70;99.90;;;;;;5051919;28;20497;-83
2024/01/08 03:17:18;;;;;;;17.85;16.15;;;-0.70;99.90;;;;;;5052105;28;20044;-83
2024/01/08 03:19:43;;;;;;;17.08;15.60;;;-0.70;99.90;;;;;;5073780;28;20036;-83
2024/01/08 03:22:09;;;;;;;18.25;16.45;;;-0.70;99.90;;;;;;5071815;28;20123;-83
2024/01/08 03:24:36;;;;;;;18.48;16.88;;;-0.70;99.90;;;;;;5069147;28;20051;-83
2024/01/08 03:27:02;;;;;;;17.95;16.20;;;-0.60;99.90;;;;;;5053603;28;20040;-84
2024/01/08 03:29:28;;;;;;;17.08;15.55;;;-0.50;99.90;;;;;;5069004;28;20090;-84
2024/01/08 03:31:54;;;;;;;15.25;13.98;;;-0.60;99.90;;;;;;5071865;28;20063;-83
2024/01/08 03:34:19;;;;;;;16.90;15.30;;;-0.60;99.90;;;;;;5069924;28;20072;-84
2024/01/08 03:36:49;;;;;;;15.07;13.98;;;-0.50;99.90;;;;;;5052794;28;20602;-83
2024/01/08 03:39:15;;;;;;;17.35;15.82;;;-0.50;99.90;;;;;;5071852;28;20048;-84
2024/01/08 03:41:42;;;;;;;15.93;14.32;;;-0.50;99.90;;;;;;5069985;28;20087;-83
2024/01/08 03:44:08;;;;;;;18.23;16.38;;;-0.50;99.90;;;;;;5056419;28;20142;-84
2024/01/08 03:46:34;;;;;;;15.32;13.85;;;-0.40;99.90;;;;;;5080226;28;20412;-84
2024/01/08 03:49:00;;;;;;;14.07;13.07;;;-0.40;99.90;;;;;;5061231;28;20067;-83
2024/01/08 03:51:26;;;;;;;14.98;13.80;;;-0.40;99.90;;;;;;5091628;28;20059;-83
2024/01/08 03:53:53;;;;;;;16.98;15.02;;;-0.40;99.90;;;;;;5099352;28;20035;-83
2024/01/08 03:56:19;;;;;;;15.05;13.65;;;-0.30;99.90;;;;;;5094605;28;20020;-83
2024/01/08 03:58:44;;;;;;;13.50;12.50;;;-0.20;99.90;;;;;;5060400;28;20039;-83
2024/01/08 04:01:11;;;;;;;14.32;13.13;;;-0.30;99.90;;;;;;5075153;28;20035;-84
2024/01/08 04:03:37;;;;;;;13.95;12.57;;;-0.20;99.90;;;;;;5072387;28;20051;-83
2024/01/08 04:06:03;;;;;;;14.45;13.38;;;-0.20;99.90;;;;;;5056211;28;20036;-83
2024/01/08 04:08:29;;;;;;;14.82;13.52;;;-0.20;99.90;;;;;;5078705;28;20040;-83
2024/01/08 04:10:54;;;;;;;16.67;15.05;;;-0.20;99.90;;;;;;5059962;28;20067;-83
2024/01/08 04:13:21;;;;;;;15.88;14.38;;;-0.20;99.90;;;;;;5076862;28;20400;-83
2024/01/08 04:15:47;;;;;;;14.95;13.60;;;-0.30;99.90;;;;;;5055605;28;20063;-83
2024/01/08 04:18:13;;;;;;;14.23;13.20;;;-0.30;99.90;;;;;;5083941;28;20057;-83
2024/01/08 04:20:39;;;;;;;13.65;12.35;;;-0.20;99.90;;;;;;5059841;28;20127;-83
2024/01/08 04:23:05;;;;;;;14.10;13.00;;;-0.30;99.90;;;;;;5061250;28;20052;-83
2024/01/08 04:25:31;;;;;;;15.23;13.93;;;-0.30;99.90;;;;;;5063573;28;20415;-84
2024/01/08 04:27:56;;;;;;;13.70;12.80;;;-0.20;99.90;;;;;;5058532;28;20039;-82
2024/01/08 04:30:22;;;;;;;14.05;13.02;;;-0.20;99.90;;;;;;5073774;28;20115;-82
2024/01/08 04:32:48;;;;;;;14.65;13.45;;;-0.20;99.90;;;;;;5071797;28;20038;-83
2024/01/08 04:35:14;;;;;;;14.40;13.20;;;-0.20;99.90;;;;;;5057469;28;20051;-83
2024/01/08 04:37:40;;;;;;;14.10;12.95;;;-0.20;99.90;;;;;;5074431;28;20046;-83
2024/01/08 04:40:07;;;;;;;14.25;13.15;;;-0.20;99.90;;;;;;5085644;28;20161;-83
2024/01/08 04:42:33;;;;;;;13.77;12.85;;;-0.30;99.90;;;;;;5074689;28;20063;-82
2024/01/08 04:44:59;;;;;;;15.05;13.85;;;-0.30;99.90;;;;;;5080090;28;20050;-83
2024/01/08 04:47:24;;;;;;;13.77;12.75;;;-0.20;99.90;;;;;;5064013;28;20036;-83
2024/01/08 04:49:50;;;;;;;14.10;13.10;;;-0.30;99.90;;;;;;5059541;28;20079;-83
2024/01/08 04:52:16;;;;;;;14.20;13.20;;;-0.40;99.90;;;;;;5060109;28;20039;-82
2024/01/08 04:54:42;;;;;;;13.55;12.55;;;-0.40;99.90;;;;;;5059505;28;20181;-83
2024/01/08 04:57:09;;;;;;;15.52;14.23;;;-0.40;99.90;;;;;;5075435;28;20044;-82
2024/01/08 04:59:43;;;;;;;14.32;13.15;;;-0.40;99.90;;;;;;5072657;28;20047;-83
2024/01/08 05:02:10;;;;;;;24.45;22.77;;;-0.40;99.90;;;;;;5073218;28;20523;-84
2024/01/08 05:04:36;;;;;;;15.50;14.00;;;-0.40;99.90;;;;;;5087867;28;20495;-83
2024/01/08 05:07:02;;;;;;;16.25;15.02;;;-0.40;99.90;;;;;;5055725;28;20055;-83
2024/01/08 05:09:29;;;;;;;16.98;15.38;;;-0.50;99.90;;;;;;5054156;28;20101;-83
2024/01/08 05:11:55;;;;;;;14.55;13.20;;;-0.50;99.90;;;;;;5055493;28;20044;-83
2024/01/08 05:14:21;;;;;;;14.90;13.60;;;-0.60;99.90;;;;;;5054841;28;20036;-83
2024/01/08 05:16:46;;;;;;;15.10;14.00;;;-0.60;99.90;;;;;;5079273;28;20040;-83
2024/01/08 05:19:12;;;;;;;14.18;12.95;;;-0.70;99.90;;;;;;5064138;28;20035;-83
2024/01/08 05:21:38;;;;;;;15.10;14.00;;;-0.70;99.90;;;;;;5057329;28;20142;-83
2024/01/08 05:24:05;;;;;;;14.15;13.15;;;-0.90;99.90;;;;;;5071035;28;20066;-83
2024/01/08 05:26:30;;;;;;;14.27;13.27;;;-0.90;99.90;;;;;;5069910;28;20044;-83
2024/01/08 05:28:56;;;;;;;15.27;14.30;;;-1.00;99.90;;;;;;5076370;28;20035;-83
2024/01/08 05:31:22;;;;;;;13.02;12.10;;;-1.10;99.90;;;;;;5057401;28;20050;-83
2024/01/08 05:33:49;;;;;;;14.98;13.55;;;-1.20;99.90;;;;;;5100114;27;20036;-84
2024/01/08 05:36:15;;;;;;;16.23;15.02;;;-1.20;99.90;;;;;;5068997;28;20058;-84
2024/01/08 05:38:41;;;;;;;15.10;14.00;;;-1.30;99.90;;;;;;5056233;28;20078;-84
2024/01/08 05:41:07;;;;;;;14.38;13.27;;;-1.40;99.90;;;;;;5053798;28;20063;-83
2024/01/08 05:43:37;;;;;;;15.30;14.10;;;-1.40;99.90;;;;;;5052292;28;20207;-83
2024/01/08 05:46:05;;;;;;;13.77;12.77;;;-1.40;99.90;;;;;;5077351;28;20039;-83
2024/01/08 05:48:36;;;;;;;16.17;14.88;;;-1.50;99.90;;;;;;5053346;28;20173;-83
2024/01/08 05:51:04;;;;;;;15.32;13.90;;;-1.40;99.90;;;;;;5090553;28;20115;-83
2024/01/08 05:53:29;;;;;;;16.15;14.75;;;-1.40;99.90;;;;;;5054936;28;20032;-84
2024/01/08 05:55:57;;;;;;;14.38;13.27;;;-1.50;99.90;;;;;;5079783;28;20142;-84
2024/01/08 05:58:23;;;;;;;15.05;13.65;;;-1.50;99.90;;;;;;5065077;28;20123;-84
2024/01/08 06:00:48;;;;;;;14.02;13.10;;;-1.40;99.90;;;;;;5071630;28;20128;-84
2024/01/08 06:03:14;;;;;;;14.40;13.25;;;-1.40;99.90;;;;;;5053105;28;20051;-84
2024/01/08 06:05:40;;;;;;;15.18;13.95;;;-1.40;99.90;;;;;;5053483;28;20036;-83
2024/01/08 06:08:06;;;;;;;13.93;13.07;;;-1.40;99.90;;;;;;5093746;28;20040;-83
2024/01/08 06:10:32;;;;;;;15.10;13.90;;;-1.50;99.90;;;;;;5072668;28;20036;-84
2024/01/08 06:12:58;;;;;;;15.85;14.65;;;-1.50;99.90;;;;;;5051057;28;20461;-84
2024/01/08 06:15:23;;;;;;;15.30;14.10;;;-1.50;99.90;;;;;;5071875;28;20497;-84
2024/01/08 06:17:49;;;;;;;20.35;18.65;;;-1.60;99.90;;;;;;5055314;28;20105;-84
2024/01/08 06:20:15;;;;;;;16.80;15.10;;;-1.60;99.90;;;;;;5087976;28;20043;-84
2024/01/08 06:22:40;;;;;;;16.48;15.00;;;-1.60;99.90;;;;;;5053044;28;20080;-85
2024/01/08 06:25:07;;;;;;;14.20;13.20;;;-1.70;99.90;;;;;;5059147;28;20048;-84
2024/01/08 06:27:32;;;;;;;14.15;13.15;;;-1.70;99.90;;;;;;5101820;28;20071;-84
2024/01/08 06:29:58;;;;;;;15.50;14.40;;;-1.70;99.90;;;;;;5095678;28;20039;-84
2024/01/08 06:32:25;;;;;;;16.85;15.57;;;-1.60;99.90;;;;;;5063303;28;20036;-84
2024/01/08 06:34:50;;;;;;;14.57;13.50;;;-1.60;99.90;;;;;;5058179;28;20055;-84
2024/01/08 06:37:17;;;;;;;15.70;14.55;;;-1.50;99.90;;;;;;5073781;28;20043;-84
2024/01/08 06:39:42;;;;;;;16.63;15.02;;;-1.40;99.90;;;;;;5053055;28;20462;-84
2024/01/08 06:42:08;;;;;;;14.38;13.18;;;-1.40;99.90;;;;;;5068003;28;20064;-84
2024/01/08 06:44:34;;;;;;;17.17;15.82;;;-1.40;99.90;;;;;;5051267;28;20040;-84
2024/01/08 06:46:59;;;;;;;16.20;14.82;;;-1.30;99.90;;;;;;5052847;28;20372;-84
2024/01/08 06:49:25;;;;;;;16.45;15.18;;;-1.30;99.90;;;;;;5071572;28;20043;-85
2024/01/08 06:51:51;;;;;;;16.27;14.98;;;-1.20;99.90;;;;;;5057464;28;20032;-85
2024/01/08 06:54:16;;;;;;;17.00;15.55;;;-1.20;99.90;;;;;;5057006;28;20046;-84
2024/01/08 06:56:42;;;;;;;18.52;16.83;;;-1.10;99.90;;;;;;5053971;28;20046;-85
2024/01/08 06:59:08;;;;;;;16.00;14.70;;;-1.10;99.90;;;;;;5069445;28;20479;-85
2024/01/08 07:01:34;;;;;;;15.57;14.27;;;-1.10;99.90;;;;;;5072400;28;20075;-85
2024/01/08 07:04:00;;;;;;;16.77;15.45;;;-1.00;99.90;;;;;;5081522;28;20509;-84
2024/01/08 07:06:25;;;;;;;15.45;14.30;;;-1.00;99.90;;;;;;5056861;28;20048;-85
2024/01/08 07:08:51;;;;;;;14.52;13.38;;;-1.00;99.90;;;;;;5054920;28;20036;-85
2024/01/08 07:11:24;;;;;;;16.13;14.82;;;-0.90;99.90;;;;;;5053999;28;20555;-85
2024/01/08 07:13:50;;;;;;;16.13;15.10;;;-0.90;99.90;;;;;;5075381;28;20058;-85
2024/01/08 07:16:17;;;;;;;14.88;13.77;;;-0.90;99.90;;;;;;5052836;28;20047;-84
2024/01/08 07:18:43;;;;;;;16.88;15.30;;;-0.80;99.90;;;;;;5057859;28;20042;-85
2024/01/08 07:21:09;;;;;;;15.85;14.48;;;-0.90;99.90;;;;;;5069760;28;20028;-84
2024/01/08 07:23:38;;;;;;;17.42;16.13;;;-0.80;99.90;;;;;;5081616;28;20059;-84
2024/01/08 07:26:04;;;;;;;14.70;13.52;;;-0.80;99.90;;;;;;5072580;28;20040;-85
2024/01/08 07:28:29;;;;;;;17.55;15.95;;;-0.70;99.90;;;;;;5064104;28;20150;-85
2024/01/08 07:30:55;;;;;;;16.08;14.75;;;-0.70;99.90;;;;;;5063497;28;20059;-85
2024/01/08 07:33:21;;;;;;;16.63;15.32;;;-0.70;99.90;;;;;;5082131;28;20471;-85
2024/01/08 07:35:47;;;;;;;17.25;15.95;;;-0.70;99.90;;;;;;5076471;28;20767;-85
2024/01/08 07:38:13;;;;;;;14.85;13.55;;;-0.60;99.90;;;;;;5063207;28;20525;-84
2024/01/08 07:40:39;;;;;;;16.30;14.60;;;-0.60;99.90;;;;;;5064131;28;20041;-84
2024/01/08 07:43:04;;;;;;;16.27;15.05;;;-0.60;99.90;;;;;;5044132;28;20050;-85
2024/01/08 07:45:30;;;;;;;15.77;14.43;;;-0.50;99.90;;;;;;5057234;28;20439;-85
2024/01/08 07:47:57;;;;;;;15.05;13.85;;;-0.50;99.90;;;;;;5054971;28;20040;-85
2024/01/08 07:50:22;;;;;;;13.77;12.77;;;-0.50;99.90;;;;;;5065624;28;20062;-85
2024/01/08 07:52:48;;;;;;;14.30;13.10;;;-0.50;99.90;;;;;;5061015;28;20487;-85
2024/01/08 07:55:14;;;;;;;13.88;12.73;;;-0.40;99.90;;;;;;5099531;28;20492;-84
2024/01/08 07:57:40;;;;;;;15.23;14.32;;;-0.40;99.90;;;;;;5084417;28;20036;-85
2024/01/08 08:00:09;;;;;;;15.18;13.98;;;-0.40;99.90;;;;;;5085465;28;20036;-85
2024/01/08 08:02:35;;;;;;;14.82;13.80;;;-0.40;99.90;;;;;;5053659;28;20080;-84
2024/01/08 08:05:01;;;;;;;13.77;12.77;;;-0.40;99.90;;;;;;5061668;28;20048;-85
2024/01/08 08:07:28;;;;;;;15.13;14.02;;;-0.40;99.90;;;;;;5089208;28;20494;-85
2024/01/08 08:09:54;;;;;;;14.70;13.50;;;-0.30;99.90;;;;;;5056221;28;20044;-85
2024/01/08 08:12:20;;;;;;;15.52;14.00;;;-0.30;99.90;;;;;;5073293;28;20692;-85
2024/01/08 08:14:49;;;;;;;17.00;15.68;;;-0.30;99.90;;;;;;5061288;28;20048;-85
2024/01/08 08:17:15;;;;;;;16.88;15.75;;;-0.30;99.90;;;;;;5073067;28;20044;-85
2024/01/08 08:19:45;;;;;;;14.15;13.23;;;-0.30;99.90;;;;;;5074699;28;20036;-84
2024/01/08 08:22:11;;;;;;;15.98;14.80;;;-0.30;99.90;;;;;;5070991;28;20445;-85
2024/01/08 08:24:39;;;;;;;13.68;12.73;;;-0.20;99.90;;;;;;5049744;28;20099;-85
2024/01/08 08:27:09;;;;;;;14.40;13.25;;;-0.20;99.90;;;;;;5056159;28;20040;-85
2024/01/08 08:29:39;;;;;;;14.70;13.60;;;-0.20;99.90;;;;;;5072758;28;20113;-85
2024/01/08 08:32:05;;;;;;;14.63;13.52;;;-0.10;99.90;;;;;;5075204;28;20039;-85
2024/01/08 08:34:31;;;;;;;14.80;13.45;;;-0.10;99.90;;;;;;5097434;28;20043;-85
2024/01/08 08:36:57;;;;;;;14.95;13.77;;;-0.10;99.90;;;;;;5053655;28;20118;-85
2024/01/08 08:39:22;;;;;;;15.77;14.68;;;0.00;99.90;;;;;;5051748;28;20696;-85
2024/01/08 08:41:48;;;;;;;15.52;14.32;;;0.00;99.90;;;;;;5051924;28;20040;-84
2024/01/08 08:44:14;;;;;;;15.88;14.65;;;0.00;99.90;;;;;;5054789;28;20381;-85
2024/01/08 08:46:40;;;;;;;15.75;14.45;;;0.00;99.90;;;;;;5062606;28;20075;-85
2024/01/08 08:49:06;;;;;;;15.57;14.30;;;0.10;99.90;;;;;;5059591;28;20059;-84
2024/01/08 08:51:34;;;;;;;13.27;12.40;;;0.00;99.90;;;;;;5055401;28;20036;-84
2024/01/08 08:54:03;;;;;;;13.82;12.90;;;0.10;99.90;;;;;;5067097;28;20479;-85
2024/01/08 08:56:32;;;;;;;16.38;14.98;;;0.10;99.90;;;;;;5093762;28;20040;-85
2024/01/08 08:58:58;;;;;;;13.48;12.48;;;0.10;99.90;;;;;;5069068;28;20038;-84
2024/01/08 09:01:24;;;;;;;13.32;12.43;;;0.10;99.90;;;;;;5080516;28;20036;-85
2024/01/08 09:03:50;;;;;;;13.43;12.43;;;0.10;99.90;;;;;;5074833;28;20396;-85
2024/01/08 09:06:20;;;;;;;12.27;11.38;;;0.10;99.90;;;;;;5063868;28;20044;-84
2024/01/08 09:08:46;;;;;;;13.85;12.95;;;0.20;99.90;;;;;;5066980;28;20036;-85
2024/01/08 09:11:12;;;;;;;13.30;12.30;;;0.30;99.90;;;;;;5057330;28;20094;-85
2024/01/08 09:13:38;;;;;;;14.88;13.57;;;0.30;99.90;;;;;;5056524;28;20126;-85
2024/01/08 09:16:04;;;;;;;14.68;13.57;;;0.30;99.90;;;;;;5073572;28;20046;-85
2024/01/08 09:18:30;;;;;;;13.68;12.68;;;0.30;99.90;;;;;;5073648;28;20105;-86
2024/01/08 09:20:55;;;;;;;13.82;12.57;;;0.30;99.90;;;;;;5068816;28;20036;-85
2024/01/08 09:23:21;;;;;;;14.98;13.98;;;0.30;99.90;;;;;;5099110;28;20657;-84
2024/01/08 09:25:47;;;;;;;14.20;13.13;;;0.40;99.90;;;;;;5073627;28;20052;-84
2024/01/08 09:28:13;;;;;;;13.02;12.15;;;0.40;99.90;;;;;;5072007;28;20079;-85
2024/01/08 09:30:39;;;;;;;13.77;12.80;;;0.50;99.90;;;;;;5073020;28;20431;-86
2024/01/08 09:33:05;;;;;;;13.70;12.63;;;0.50;99.90;;;;;;5074599;28;20491;-84
2024/01/08 09:35:31;;;;;;;16.10;14.93;;;0.50;99.90;;;;;;5057058;28;20050;-85
2024/01/08 09:37:56;;;;;;;15.15;14.05;;;0.50;99.90;;;;;;5057740;28;20472;-85
2024/01/08 09:40:24;;;;;;;14.20;13.40;;;0.50;99.90;;;;;;5087581;28;20059;-85
2024/01/08 09:42:53;;;;;;;13.65;12.75;;;0.60;99.90;;;;;;5070614;28;20400;-86
2024/01/08 09:45:23;;;;;;;14.48;13.57;;;0.60;99.90;;;;;;5071866;28;20408;-84
2024/01/08 09:47:49;;;;;;;14.05;12.93;;;0.60;99.90;;;;;;5054827;28;20173;-84
2024/01/08 09:50:16;;;;;;;16.80;15.82;;;0.70;99.90;;;;;;5075630;28;20043;-85
2024/01/08 09:52:43;;;;;;;13.45;12.55;;;0.70;99.90;;;;;;5079629;28;20032;-84
2024/01/08 09:55:10;;;;;;;14.77;13.77;;;0.70;99.90;;;;;;5055297;28;20044;-87
2024/01/08 09:57:36;;;;;;;17.13;15.80;;;0.70;99.90;;;;;;5081156;28;20043;-84
2024/01/08 10:00:03;;;;;;;23.23;21.70;;;0.80;99.90;;;;;;5071970;28;20048;-84
2024/01/08 10:02:29;;;;;;;13.73;12.70;;;1.00;99.90;;;;;;5071875;28;20151;-83
2024/01/08 10:04:55;;;;;;;12.88;11.95;;;1.10;99.90;;;;;;5073050;28;20094;-84
2024/01/08 10:07:22;;;;;;;11.88;11.18;;;1.10;99.90;;;;;;5073185;28;20047;-82
2024/01/08 10:09:48;;;;;;;13.57;12.57;;;1.10;99.90;;;;;;5062194;28;20119;-84
2024/01/08 10:12:14;;;;;;;14.10;12.80;;;1.00;99.90;;;;;;5068877;28;20158;-83
2024/01/08 10:14:40;;;;;;;12.88;11.98;;;0.90;99.90;;;;;;5075781;28;20082;-83
2024/01/08 10:17:06;;;;;;;13.93;13.02;;;0.90;99.90;;;;;;5076733;28;20523;-84
2024/01/08 10:19:31;;;;;;;14.90;13.98;;;0.90;99.90;;;;;;5077484;28;20083;-83
2024/01/08 10:22:11;;;;;;;13.50;12.45;;;0.90;99.90;;;;;;5073530;28;20048;-83
2024/01/08 10:24:38;;;;;;;14.00;13.07;;;0.80;99.90;;;;;;5079051;28;20401;-83
2024/01/08 10:27:06;;;;;;;16.23;15.23;;;0.80;99.90;;;;;;5089490;28;20067;-84
2024/01/08 10:29:32;;;;;;;13.25;12.25;;;0.90;99.90;;;;;;5097811;28;20035;-83
2024/01/08 10:31:57;;;;;;;15.25;14.27;;;0.90;99.90;;;;;;5074001;28;20039;-84
2024/01/08 10:34:25;;;;;;;14.02;13.02;;;0.90;99.90;;;;;;5077828;28;20123;-83
2024/01/08 10:36:52;;;;;;;13.48;12.57;;;0.90;99.90;;;;;;5073792;28;20131;-83
2024/01/08 10:39:19;;;;;;;12.88;11.98;;;0.90;99.90;;;;;;5092818;28;20044;-83
2024/01/08 10:41:44;;;;;;;17.52;16.40;;;0.90;99.90;;;;;;5090423;28;20043;-84
2024/01/08 10:44:10;;;;;;;16.17;15.10;;;0.90;99.90;;;;;;5071079;28;20398;-83
2024/01/08 10:46:49;;;;;;;12.98;12.13;;;0.90;99.90;;;;;;5068079;28;20036;-83
2024/01/08 10:49:18;;;;;;;16.50;15.40;;;1.10;99.90;;;;;;5096562;28;20043;-83
2024/01/08 10:51:47;;;;;;;13.25;12.35;;;1.10;99.90;;;;;;5077909;28;20036;-82
2024/01/08 10:54:17;;;;;;;12.63;11.82;;;1.00;99.90;;;;;;5074216;28;20108;-83
2024/01/08 10:56:47;;;;;;;13.00;11.98;;;1.10;99.90;;;;;;5058204;28;20047;-82
2024/01/08 10:59:21;;;;;;;13.50;12.20;;;1.10;99.90;;;;;;5092051;28;20048;-83
2024/01/08 11:01:47;;;;;;;15.05;14.15;;;1.10;99.90;;;;;;5059691;28;20551;-83
2024/01/08 11:04:14;;;;;;;13.75;12.90;;;1.10;99.90;;;;;;5062488;28;20079;-82
2024/01/08 11:06:42;;;;;;;11.80;11.00;;;1.10;99.90;;;;;;5071142;28;20062;-83
2024/01/08 11:09:31;;;;;;;11.75;10.93;;;1.10;99.90;;;;;;5074404;28;20096;-83
2024/01/08 11:11:57;;;;;;;12.35;11.55;;;1.00;99.90;;;;;;5093660;28;20032;-82
2024/01/08 11:14:24;;;;;;;13.10;12.30;;;1.00;99.90;;;;;;5050836;28;20040;-84
2024/01/08 11:16:51;;;;;;;11.45;10.73;;;1.00;99.90;;;;;;5077523;28;20043;-82
2024/01/08 11:19:19;;;;;;;12.43;11.40;;;1.00;99.90;;;;;;5057209;28;20055;-83
2024/01/08 11:21:48;;;;;;;12.60;11.80;;;1.00;99.90;;;;;;5070331;28;20147;-83
2024/01/08 11:24:14;;;;;;;12.13;11.32;;;1.00;99.90;;;;;;5086234;28;20052;-82
2024/01/08 11:26:43;;;;;;;12.95;12.05;;;0.90;99.90;;;;;;5074617;28;20694;-82
2024/01/08 11:29:10;;;;;;;12.68;11.82;;;0.90;99.90;;;;;;5047694;28;20068;-82
2024/01/08 11:32:08;;;;;;;12.73;11.82;;;0.90;99.90;;;;;;5075169;28;20036;-83
2024/01/08 11:34:56;;;;;;;13.18;12.18;;;0.90;99.90;;;;;;5069846;28;20042;-82
2024/01/08 11:37:39;;;;;;;11.93;11.20;;;1.00;99.90;;;;;;5095974;28;20047;-82
2024/01/08 11:40:17;;;;;;;12.30;11.50;;;1.00;99.90;;;;;;5067510;28;20816;-82
2024/01/08 11:42:47;;;;;;;13.13;12.27;;;1.00;99.90;;;;;;5070049;28;20036;-83
2024/01/08 11:45:13;;;;;;;12.23;11.48;;;1.00;99.90;;;;;;5062593;28;20083;-82
2024/01/08 11:47:39;;;;;;;14.32;13.38;;;1.10;99.90;;;;;;5065613;28;20051;-86
2024/01/08 11:50:06;;;;;;;11.45;10.75;;;1.30;99.90;;;;;;5066051;28;20051;-82
2024/01/08 11:52:34;;;;;;;11.70;10.93;;;1.50;99.90;;;;;;5066811;28;20736;-84
2024/01/08 11:54:59;;;;;;;9.90;9.30;;;1.80;99.90;;;;;;5083406;28;20511;-82
2024/01/08 11:57:28;;;;;;;9.20;8.60;;;1.90;99.90;;;;;;5103215;28;20830;-83
2024/01/08 11:59:54;;;;;;;10.77;10.07;;;2.00;99.90;;;;;;5090217;28;20036;-83
2024/01/08 12:02:28;;;;;;;10.98;10.23;;;2.00;99.90;;;;;;5065617;28;20054;-83
2024/01/08 12:04:58;;;;;;;10.20;9.43;;;2.10;99.90;;;;;;5078222;28;20067;-83
2024/01/08 12:07:28;;;;;;;10.07;9.38;;;2.10;99.90;;;;;;5062878;28;20033;-82
2024/01/08 12:09:54;;;;;;;9.20;8.52;;;2.10;99.90;;;;;;5047075;28;20032;-82
2024/01/08 12:12:24;;;;;;;9.68;8.98;;;2.10;99.90;;;;;;5085707;28;20039;-84
2024/01/08 12:14:51;;;;;;;9.35;8.75;;;2.00;99.90;;;;;;5083051;28;20043;-82
2024/01/08 12:17:18;;;;;;;9.35;8.80;;;1.90;99.90;;;;;;5071082;28;20121;-82
2024/01/08 12:19:55;;;;;;;10.15;9.35;;;1.80;99.90;;;;;;5072372;28;20044;-82
2024/01/08 12:22:22;;;;;;;10.35;9.52;;;1.80;99.90;;;;;;5067706;28;20052;-81
2024/01/08 12:24:58;;;;;;;9.43;8.73;;;1.80;99.90;;;;;;5078145;28;20058;-82
2024/01/08 12:27:31;;;;;;;9.55;8.85;;;1.80;99.90;;;;;;5073829;28;20043;-82